sensor_id;sensor_type;location;lat;lon;timestamp;P1;durP1;ratioP1;P2;durP2;ratioP2
50393;SDS011;36308;46.312;25.288;2023-06-22T00:00:54;10.90;;;7.95;;
50393;SDS011;36308;46.312;25.288;2023-06-22T00:03:20;11.65;;;8.45;;
50393;SDS011;36308;46.312;25.288;2023-06-22T00:05:48;13.13;;;8.60;;
50393;SDS011;36308;46.312;25.288;2023-06-22T00:08:14;10.05;;;8.07;;
50393;SDS011;36308;46.312;25.288;2023-06-22T00:10:42;10.60;;;8.05;;
50393;SDS011;36308;46.312;25.288;2023-06-22T00:13:08;9.93;;;8.40;;
50393;SDS011;36308;46.312;25.288;2023-06-22T00:15:35;11.85;;;8.13;;
50393;SDS011;36308;46.312;25.288;2023-06-22T00:18:01;11.10;;;8.43;;
50393;SDS011;36308;46.312;25.288;2023-06-22T00:20:27;10.75;;;8.40;;
50393;SDS011;36308;46.312;25.288;2023-06-22T00:22:54;9.95;;;8.07;;
50393;SDS011;36308;46.312;25.288;2023-06-22T00:25:20;10.15;;;8.50;;
50393;SDS011;36308;46.312;25.288;2023-06-22T00:27:46;11.18;;;8.30;;
50393;SDS011;36308;46.312;25.288;2023-06-22T00:30:12;9.88;;;8.05;;
50393;SDS011;36308;46.312;25.288;2023-06-22T00:32:37;10.27;;;8.00;;
50393;SDS011;36308;46.312;25.288;2023-06-22T00:35:03;11.20;;;8.02;;
50393;SDS011;36308;46.312;25.288;2023-06-22T00:37:29;11.50;;;7.85;;
50393;SDS011;36308;46.312;25.288;2023-06-22T00:39:55;13.50;;;8.60;;
50393;SDS011;36308;46.312;25.288;2023-06-22T00:42:21;11.43;;;8.23;;
50393;SDS011;36308;46.312;25.288;2023-06-22T00:44:47;12.95;;;8.10;;
50393;SDS011;36308;46.312;25.288;2023-06-22T00:47:13;10.40;;;8.38;;
50393;SDS011;36308;46.312;25.288;2023-06-22T00:49:42;13.48;;;8.27;;
50393;SDS011;36308;46.312;25.288;2023-06-22T00:52:08;10.85;;;8.05;;
50393;SDS011;36308;46.312;25.288;2023-06-22T00:54:41;11.50;;;8.52;;
50393;SDS011;36308;46.312;25.288;2023-06-22T00:57:13;9.63;;;8.13;;
50393;SDS011;36308;46.312;25.288;2023-06-22T00:59:42;9.00;;;7.85;;
50393;SDS011;36308;46.312;25.288;2023-06-22T01:02:09;10.93;;;8.35;;
50393;SDS011;36308;46.312;25.288;2023-06-22T01:04:35;9.77;;;8.50;;
50393;SDS011;36308;46.312;25.288;2023-06-22T01:10:36;12.20;;;8.52;;
50393;SDS011;36308;46.312;25.288;2023-06-22T01:13:04;9.27;;;7.32;;
50393;SDS011;36308;46.312;25.288;2023-06-22T01:15:44;14.73;;;8.20;;
50393;SDS011;36308;46.312;25.288;2023-06-22T01:18:19;9.07;;;7.78;;
50393;SDS011;36308;46.312;25.288;2023-06-22T01:20:54;10.30;;;8.00;;
50393;SDS011;36308;46.312;25.288;2023-06-22T01:26:18;9.77;;;7.53;;
50393;SDS011;36308;46.312;25.288;2023-06-22T01:31:18;11.48;;;7.63;;
50393;SDS011;36308;46.312;25.288;2023-06-22T01:33:50;10.13;;;8.00;;
50393;SDS011;36308;46.312;25.288;2023-06-22T01:36:19;10.05;;;7.25;;
50393;SDS011;36308;46.312;25.288;2023-06-22T01:38:46;17.48;;;7.60;;
50393;SDS011;36308;46.312;25.288;2023-06-22T01:41:12;10.93;;;7.65;;
50393;SDS011;36308;46.312;25.288;2023-06-22T01:43:38;10.85;;;7.97;;
50393;SDS011;36308;46.312;25.288;2023-06-22T01:46:04;11.98;;;8.02;;
50393;SDS011;36308;46.312;25.288;2023-06-22T01:48:30;10.20;;;8.00;;
50393;SDS011;36308;46.312;25.288;2023-06-22T01:50:56;10.25;;;8.10;;
50393;SDS011;36308;46.312;25.288;2023-06-22T01:53:22;9.32;;;7.68;;
50393;SDS011;36308;46.312;25.288;2023-06-22T01:55:48;9.02;;;7.75;;
50393;SDS011;36308;46.312;25.288;2023-06-22T01:58:14;10.45;;;7.40;;
50393;SDS011;36308;46.312;25.288;2023-06-22T02:00:41;10.85;;;7.80;;
50393;SDS011;36308;46.312;25.288;2023-06-22T02:03:13;9.95;;;7.43;;
50393;SDS011;36308;46.312;25.288;2023-06-22T02:05:45;11.40;;;8.60;;
50393;SDS011;36308;46.312;25.288;2023-06-22T02:08:19;8.98;;;7.70;;
50393;SDS011;36308;46.312;25.288;2023-06-22T02:10:47;9.98;;;7.70;;
50393;SDS011;36308;46.312;25.288;2023-06-22T02:13:14;10.27;;;7.47;;
50393;SDS011;36308;46.312;25.288;2023-06-22T02:15:41;10.90;;;7.75;;
50393;SDS011;36308;46.312;25.288;2023-06-22T02:18:07;8.70;;;7.00;;
50393;SDS011;36308;46.312;25.288;2023-06-22T02:20:36;9.98;;;7.43;;
50393;SDS011;36308;46.312;25.288;2023-06-22T02:23:02;9.27;;;7.72;;
50393;SDS011;36308;46.312;25.288;2023-06-22T02:25:28;9.80;;;7.78;;
50393;SDS011;36308;46.312;25.288;2023-06-22T02:27:53;8.63;;;7.60;;
50393;SDS011;36308;46.312;25.288;2023-06-22T02:30:19;10.48;;;8.35;;
50393;SDS011;36308;46.312;25.288;2023-06-22T02:32:44;13.20;;;8.15;;
50393;SDS011;36308;46.312;25.288;2023-06-22T02:35:10;13.82;;;8.13;;
50393;SDS011;36308;46.312;25.288;2023-06-22T02:37:36;12.38;;;8.15;;
50393;SDS011;36308;46.312;25.288;2023-06-22T02:40:04;9.57;;;8.32;;
50393;SDS011;36308;46.312;25.288;2023-06-22T02:42:36;10.60;;;7.90;;
50393;SDS011;36308;46.312;25.288;2023-06-22T02:45:03;11.10;;;8.00;;
50393;SDS011;36308;46.312;25.288;2023-06-22T02:47:29;9.57;;;8.18;;
50393;SDS011;36308;46.312;25.288;2023-06-22T02:49:54;10.32;;;7.80;;
50393;SDS011;36308;46.312;25.288;2023-06-22T02:52:20;10.32;;;7.65;;
50393;SDS011;36308;46.312;25.288;2023-06-22T02:54:46;12.15;;;8.57;;
50393;SDS011;36308;46.312;25.288;2023-06-22T02:57:11;10.82;;;7.47;;
50393;SDS011;36308;46.312;25.288;2023-06-22T02:59:39;8.60;;;7.00;;
50393;SDS011;36308;46.312;25.288;2023-06-22T03:02:07;11.80;;;7.25;;
50393;SDS011;36308;46.312;25.288;2023-06-22T03:04:34;13.27;;;7.50;;
50393;SDS011;36308;46.312;25.288;2023-06-22T03:06:59;13.18;;;8.32;;
50393;SDS011;36308;46.312;25.288;2023-06-22T03:09:26;12.40;;;8.40;;
50393;SDS011;36308;46.312;25.288;2023-06-22T03:11:53;14.77;;;8.80;;
50393;SDS011;36308;46.312;25.288;2023-06-22T03:14:19;11.88;;;8.10;;
50393;SDS011;36308;46.312;25.288;2023-06-22T03:16:45;13.52;;;11.48;;
50393;SDS011;36308;46.312;25.288;2023-06-22T03:19:10;13.68;;;12.20;;
50393;SDS011;36308;46.312;25.288;2023-06-22T03:21:37;14.48;;;13.10;;
50393;SDS011;36308;46.312;25.288;2023-06-22T03:24:06;14.35;;;11.73;;
50393;SDS011;36308;46.312;25.288;2023-06-22T03:26:32;14.30;;;10.18;;
50393;SDS011;36308;46.312;25.288;2023-06-22T03:28:58;11.82;;;9.60;;
50393;SDS011;36308;46.312;25.288;2023-06-22T03:31:23;12.35;;;9.45;;
50393;SDS011;36308;46.312;25.288;2023-06-22T03:33:49;12.38;;;9.77;;
50393;SDS011;36308;46.312;25.288;2023-06-22T03:36:15;12.73;;;9.75;;
50393;SDS011;36308;46.312;25.288;2023-06-22T03:38:45;12.85;;;9.52;;
50393;SDS011;36308;46.312;25.288;2023-06-22T03:41:13;13.30;;;9.45;;
50393;SDS011;36308;46.312;25.288;2023-06-22T03:43:57;13.13;;;10.23;;
50393;SDS011;36308;46.312;25.288;2023-06-22T03:46:22;14.10;;;10.13;;
50393;SDS011;36308;46.312;25.288;2023-06-22T03:48:48;13.35;;;10.05;;
50393;SDS011;36308;46.312;25.288;2023-06-22T03:51:14;11.95;;;9.93;;
50393;SDS011;36308;46.312;25.288;2023-06-22T03:53:39;12.68;;;9.88;;
50393;SDS011;36308;46.312;25.288;2023-06-22T03:56:05;11.10;;;9.57;;
50393;SDS011;36308;46.312;25.288;2023-06-22T03:58:31;12.82;;;9.63;;
50393;SDS011;36308;46.312;25.288;2023-06-22T04:01:01;13.52;;;9.80;;
50393;SDS011;36308;46.312;25.288;2023-06-22T04:03:27;12.02;;;9.23;;
50393;SDS011;36308;46.312;25.288;2023-06-22T04:05:52;16.33;;;9.95;;
50393;SDS011;36308;46.312;25.288;2023-06-22T04:08:17;16.80;;;10.48;;
50393;SDS011;36308;46.312;25.288;2023-06-22T04:10:43;14.50;;;9.60;;
50393;SDS011;36308;46.312;25.288;2023-06-22T04:13:09;17.10;;;10.93;;
50393;SDS011;36308;46.312;25.288;2023-06-22T04:15:34;13.82;;;9.90;;
50393;SDS011;36308;46.312;25.288;2023-06-22T04:18:00;13.40;;;10.10;;
50393;SDS011;36308;46.312;25.288;2023-06-22T04:20:25;15.65;;;9.40;;
50393;SDS011;36308;46.312;25.288;2023-06-22T04:22:54;11.93;;;9.48;;
50393;SDS011;36308;46.312;25.288;2023-06-22T04:25:20;13.15;;;9.68;;
50393;SDS011;36308;46.312;25.288;2023-06-22T04:27:46;13.00;;;9.95;;
50393;SDS011;36308;46.312;25.288;2023-06-22T04:30:12;13.05;;;10.32;;
50393;SDS011;36308;46.312;25.288;2023-06-22T04:32:41;15.57;;;10.07;;
50393;SDS011;36308;46.312;25.288;2023-06-22T04:35:06;15.13;;;9.70;;
50393;SDS011;36308;46.312;25.288;2023-06-22T04:37:33;13.68;;;9.35;;
50393;SDS011;36308;46.312;25.288;2023-06-22T04:39:58;15.70;;;9.80;;
50393;SDS011;36308;46.312;25.288;2023-06-22T04:42:27;14.55;;;10.40;;
50393;SDS011;36308;46.312;25.288;2023-06-22T04:44:53;16.77;;;9.95;;
50393;SDS011;36308;46.312;25.288;2023-06-22T04:47:19;17.77;;;10.07;;
50393;SDS011;36308;46.312;25.288;2023-06-22T04:49:44;13.23;;;9.40;;
50393;SDS011;36308;46.312;25.288;2023-06-22T04:52:10;15.75;;;10.05;;
50393;SDS011;36308;46.312;25.288;2023-06-22T04:54:38;12.70;;;10.05;;
50393;SDS011;36308;46.312;25.288;2023-06-22T04:57:06;15.30;;;11.02;;
50393;SDS011;36308;46.312;25.288;2023-06-22T04:59:36;16.25;;;11.27;;
50393;SDS011;36308;46.312;25.288;2023-06-22T05:02:04;13.38;;;10.90;;
50393;SDS011;36308;46.312;25.288;2023-06-22T05:04:31;20.27;;;11.25;;
50393;SDS011;36308;46.312;25.288;2023-06-22T05:06:57;16.67;;;9.57;;
50393;SDS011;36308;46.312;25.288;2023-06-22T05:09:23;14.43;;;11.05;;
50393;SDS011;36308;46.312;25.288;2023-06-22T05:11:50;17.17;;;10.55;;
50393;SDS011;36308;46.312;25.288;2023-06-22T05:14:17;13.48;;;10.02;;
50393;SDS011;36308;46.312;25.288;2023-06-22T05:16:44;13.70;;;9.40;;
50393;SDS011;36308;46.312;25.288;2023-06-22T05:19:10;15.48;;;9.63;;
50393;SDS011;36308;46.312;25.288;2023-06-22T05:21:36;22.25;;;10.68;;
50393;SDS011;36308;46.312;25.288;2023-06-22T05:24:02;16.35;;;10.27;;
50393;SDS011;36308;46.312;25.288;2023-06-22T05:26:29;15.57;;;10.45;;
50393;SDS011;36308;46.312;25.288;2023-06-22T05:28:56;16.33;;;9.95;;
50393;SDS011;36308;46.312;25.288;2023-06-22T05:31:21;15.55;;;10.00;;
50393;SDS011;36308;46.312;25.288;2023-06-22T05:33:48;19.00;;;11.40;;
50393;SDS011;36308;46.312;25.288;2023-06-22T05:36:14;13.43;;;10.52;;
50393;SDS011;36308;46.312;25.288;2023-06-22T05:38:40;16.60;;;10.90;;
50393;SDS011;36308;46.312;25.288;2023-06-22T05:41:06;15.32;;;10.98;;
50393;SDS011;36308;46.312;25.288;2023-06-22T05:43:32;16.08;;;11.38;;
50393;SDS011;36308;46.312;25.288;2023-06-22T05:45:59;20.42;;;10.75;;
50393;SDS011;36308;46.312;25.288;2023-06-22T05:48:26;17.80;;;11.25;;
50393;SDS011;36308;46.312;25.288;2023-06-22T05:50:52;14.07;;;10.43;;
50393;SDS011;36308;46.312;25.288;2023-06-22T05:53:18;42.00;;;13.63;;
50393;SDS011;36308;46.312;25.288;2023-06-22T05:55:44;13.25;;;10.05;;
50393;SDS011;36308;46.312;25.288;2023-06-22T05:58:10;24.10;;;9.98;;
50393;SDS011;36308;46.312;25.288;2023-06-22T06:00:35;8.27;;;6.50;;
50393;SDS011;36308;46.312;25.288;2023-06-22T06:03:01;11.35;;;7.82;;
50393;SDS011;36308;46.312;25.288;2023-06-22T06:05:32;11.07;;;8.13;;
50393;SDS011;36308;46.312;25.288;2023-06-22T06:07:58;10.48;;;7.90;;
50393;SDS011;36308;46.312;25.288;2023-06-22T06:10:29;13.15;;;8.25;;
50393;SDS011;36308;46.312;25.288;2023-06-22T06:12:55;14.05;;;9.38;;
50393;SDS011;36308;46.312;25.288;2023-06-22T06:15:21;14.73;;;9.63;;
50393;SDS011;36308;46.312;25.288;2023-06-22T06:17:47;17.00;;;9.23;;
50393;SDS011;36308;46.312;25.288;2023-06-22T06:20:15;11.23;;;8.40;;
50393;SDS011;36308;46.312;25.288;2023-06-22T06:22:41;11.70;;;8.90;;
50393;SDS011;36308;46.312;25.288;2023-06-22T06:25:08;11.10;;;8.30;;
50393;SDS011;36308;46.312;25.288;2023-06-22T06:27:33;12.15;;;8.43;;
50393;SDS011;36308;46.312;25.288;2023-06-22T06:29:59;13.63;;;8.93;;
50393;SDS011;36308;46.312;25.288;2023-06-22T06:32:24;10.18;;;8.68;;
50393;SDS011;36308;46.312;25.288;2023-06-22T06:34:50;10.80;;;9.43;;
50393;SDS011;36308;46.312;25.288;2023-06-22T06:37:16;11.23;;;9.23;;
50393;SDS011;36308;46.312;25.288;2023-06-22T06:39:42;10.10;;;8.13;;
50393;SDS011;36308;46.312;25.288;2023-06-22T06:42:07;9.95;;;8.93;;
50393;SDS011;36308;46.312;25.288;2023-06-22T06:44:33;9.80;;;8.40;;
50393;SDS011;36308;46.312;25.288;2023-06-22T06:46:58;10.10;;;9.05;;
50393;SDS011;36308;46.312;25.288;2023-06-22T06:49:24;16.38;;;8.82;;
50393;SDS011;36308;46.312;25.288;2023-06-22T06:51:50;13.38;;;8.93;;
50393;SDS011;36308;46.312;25.288;2023-06-22T06:54:15;10.23;;;8.25;;
50393;SDS011;36308;46.312;25.288;2023-06-22T06:56:41;13.40;;;9.35;;
50393;SDS011;36308;46.312;25.288;2023-06-22T06:59:09;10.88;;;8.85;;
50393;SDS011;36308;46.312;25.288;2023-06-22T07:01:35;11.85;;;8.27;;
50393;SDS011;36308;46.312;25.288;2023-06-22T07:04:01;11.73;;;9.02;;
50393;SDS011;36308;46.312;25.288;2023-06-22T07:06:26;9.75;;;8.45;;
50393;SDS011;36308;46.312;25.288;2023-06-22T07:08:55;9.70;;;8.70;;
50393;SDS011;36308;46.312;25.288;2023-06-22T07:11:20;11.68;;;9.65;;
50393;SDS011;36308;46.312;25.288;2023-06-22T07:13:46;10.38;;;8.45;;
50393;SDS011;36308;46.312;25.288;2023-06-22T07:16:11;11.18;;;9.25;;
50393;SDS011;36308;46.312;25.288;2023-06-22T07:18:39;12.27;;;9.10;;
50393;SDS011;36308;46.312;25.288;2023-06-22T07:21:05;10.82;;;9.10;;
50393;SDS011;36308;46.312;25.288;2023-06-22T07:23:31;14.80;;;10.10;;
50393;SDS011;36308;46.312;25.288;2023-06-22T07:25:57;12.90;;;9.57;;
50393;SDS011;36308;46.312;25.288;2023-06-22T07:28:26;11.75;;;9.20;;
50393;SDS011;36308;46.312;25.288;2023-06-22T07:30:52;11.52;;;9.48;;
50393;SDS011;36308;46.312;25.288;2023-06-22T07:33:18;11.10;;;8.68;;
50393;SDS011;36308;46.312;25.288;2023-06-22T07:35:44;10.32;;;9.25;;
50393;SDS011;36308;46.312;25.288;2023-06-22T07:38:10;11.70;;;10.05;;
50393;SDS011;36308;46.312;25.288;2023-06-22T07:40:35;10.65;;;9.23;;
50393;SDS011;36308;46.312;25.288;2023-06-22T07:43:01;10.90;;;9.40;;
50393;SDS011;36308;46.312;25.288;2023-06-22T07:45:28;10.55;;;9.48;;
50393;SDS011;36308;46.312;25.288;2023-06-22T07:47:54;11.85;;;10.20;;
50393;SDS011;36308;46.312;25.288;2023-06-22T07:50:20;11.82;;;9.57;;
50393;SDS011;36308;46.312;25.288;2023-06-22T07:52:45;10.85;;;9.75;;
50393;SDS011;36308;46.312;25.288;2023-06-22T07:55:12;12.02;;;9.75;;
50393;SDS011;36308;46.312;25.288;2023-06-22T07:57:38;10.40;;;9.40;;
50393;SDS011;36308;46.312;25.288;2023-06-22T08:00:05;11.50;;;9.50;;
50393;SDS011;36308;46.312;25.288;2023-06-22T08:02:41;11.75;;;9.82;;
50393;SDS011;36308;46.312;25.288;2023-06-22T08:05:08;11.43;;;10.02;;
50393;SDS011;36308;46.312;25.288;2023-06-22T08:07:35;11.00;;;9.90;;
50393;SDS011;36308;46.312;25.288;2023-06-22T08:10:03;10.88;;;9.77;;
50393;SDS011;36308;46.312;25.288;2023-06-22T08:12:29;11.35;;;9.77;;
50393;SDS011;36308;46.312;25.288;2023-06-22T08:14:55;13.88;;;10.35;;
50393;SDS011;36308;46.312;25.288;2023-06-22T08:17:22;11.27;;;10.13;;
50393;SDS011;36308;46.312;25.288;2023-06-22T08:19:50;13.48;;;10.07;;
50393;SDS011;36308;46.312;25.288;2023-06-22T08:22:16;12.93;;;10.15;;
50393;SDS011;36308;46.312;25.288;2023-06-22T08:24:42;11.05;;;9.90;;
50393;SDS011;36308;46.312;25.288;2023-06-22T08:27:09;12.23;;;10.43;;
50393;SDS011;36308;46.312;25.288;2023-06-22T08:29:36;11.50;;;10.23;;
50393;SDS011;36308;46.312;25.288;2023-06-22T08:32:02;11.32;;;10.23;;
50393;SDS011;36308;46.312;25.288;2023-06-22T08:34:28;11.73;;;10.27;;
50393;SDS011;36308;46.312;25.288;2023-06-22T08:36:54;12.27;;;10.98;;
50393;SDS011;36308;46.312;25.288;2023-06-22T08:39:19;12.05;;;10.15;;
50393;SDS011;36308;46.312;25.288;2023-06-22T08:41:45;11.73;;;10.20;;
50393;SDS011;36308;46.312;25.288;2023-06-22T08:44:12;11.35;;;9.77;;
50393;SDS011;36308;46.312;25.288;2023-06-22T08:46:37;14.77;;;10.15;;
50393;SDS011;36308;46.312;25.288;2023-06-22T08:49:05;11.15;;;10.05;;
50393;SDS011;36308;46.312;25.288;2023-06-22T08:51:31;11.88;;;10.48;;
50393;SDS011;36308;46.312;25.288;2023-06-22T08:53:56;12.15;;;10.75;;
50393;SDS011;36308;46.312;25.288;2023-06-22T08:56:22;13.63;;;10.27;;
50393;SDS011;36308;46.312;25.288;2023-06-22T08:58:47;12.07;;;10.18;;
50393;SDS011;36308;46.312;25.288;2023-06-22T09:01:13;12.38;;;10.40;;
50393;SDS011;36308;46.312;25.288;2023-06-22T09:03:40;12.88;;;10.27;;
50393;SDS011;36308;46.312;25.288;2023-06-22T09:06:06;14.23;;;10.88;;
50393;SDS011;36308;46.312;25.288;2023-06-22T09:08:34;16.30;;;10.18;;
50393;SDS011;36308;46.312;25.288;2023-06-22T09:11:00;12.55;;;10.38;;
50393;SDS011;36308;46.312;25.288;2023-06-22T09:13:26;12.05;;;10.82;;
50393;SDS011;36308;46.312;25.288;2023-06-22T09:15:51;12.77;;;10.70;;
50393;SDS011;36308;46.312;25.288;2023-06-22T09:18:17;11.60;;;10.40;;
50393;SDS011;36308;46.312;25.288;2023-06-22T09:20:43;12.27;;;10.70;;
50393;SDS011;36308;46.312;25.288;2023-06-22T09:23:08;13.52;;;11.10;;
50393;SDS011;36308;46.312;25.288;2023-06-22T09:25:34;12.35;;;10.90;;
50393;SDS011;36308;46.312;25.288;2023-06-22T09:27:59;11.82;;;10.63;;
50393;SDS011;36308;46.312;25.288;2023-06-22T09:30:25;15.05;;;10.68;;
50393;SDS011;36308;46.312;25.288;2023-06-22T09:32:50;13.63;;;11.27;;
50393;SDS011;36308;46.312;25.288;2023-06-22T09:35:16;12.02;;;10.52;;
50393;SDS011;36308;46.312;25.288;2023-06-22T09:37:41;13.52;;;11.55;;
50393;SDS011;36308;46.312;25.288;2023-06-22T09:40:07;14.63;;;11.32;;
50393;SDS011;36308;46.312;25.288;2023-06-22T09:42:35;12.70;;;10.32;;
50393;SDS011;36308;46.312;25.288;2023-06-22T09:45:00;11.55;;;10.35;;
50393;SDS011;36308;46.312;25.288;2023-06-22T09:47:27;14.73;;;10.32;;
50393;SDS011;36308;46.312;25.288;2023-06-22T09:49:53;12.20;;;10.98;;
50393;SDS011;36308;46.312;25.288;2023-06-22T09:52:20;11.57;;;10.18;;
50393;SDS011;36308;46.312;25.288;2023-06-22T09:54:46;11.45;;;10.18;;
50393;SDS011;36308;46.312;25.288;2023-06-22T09:57:12;11.82;;;10.73;;
50393;SDS011;36308;46.312;25.288;2023-06-22T09:59:38;11.68;;;10.43;;
50393;SDS011;36308;46.312;25.288;2023-06-22T10:02:05;13.98;;;10.65;;
50393;SDS011;36308;46.312;25.288;2023-06-22T10:04:31;13.90;;;11.10;;
50393;SDS011;36308;46.312;25.288;2023-06-22T10:06:58;11.93;;;10.73;;
50393;SDS011;36308;46.312;25.288;2023-06-22T10:09:24;13.63;;;10.02;;
50393;SDS011;36308;46.312;25.288;2023-06-22T10:11:49;11.13;;;10.07;;
50393;SDS011;36308;46.312;25.288;2023-06-22T10:14:15;11.48;;;10.27;;
50393;SDS011;36308;46.312;25.288;2023-06-22T10:16:41;12.35;;;11.05;;
50393;SDS011;36308;46.312;25.288;2023-06-22T10:19:07;11.65;;;9.90;;
50393;SDS011;36308;46.312;25.288;2023-06-22T10:21:32;13.13;;;10.48;;
50393;SDS011;36308;46.312;25.288;2023-06-22T10:23:59;10.98;;;9.88;;
50393;SDS011;36308;46.312;25.288;2023-06-22T10:26:30;11.85;;;10.63;;
50393;SDS011;36308;46.312;25.288;2023-06-22T10:28:57;11.65;;;10.15;;
50393;SDS011;36308;46.312;25.288;2023-06-22T10:31:22;11.02;;;9.93;;
50393;SDS011;36308;46.312;25.288;2023-06-22T10:33:48;12.45;;;11.25;;
50393;SDS011;36308;46.312;25.288;2023-06-22T10:36:14;11.80;;;10.52;;
50393;SDS011;36308;46.312;25.288;2023-06-22T10:38:40;12.05;;;10.35;;
50393;SDS011;36308;46.312;25.288;2023-06-22T10:41:06;11.77;;;9.85;;
50393;SDS011;36308;46.312;25.288;2023-06-22T10:43:31;11.35;;;10.25;;
50393;SDS011;36308;46.312;25.288;2023-06-22T10:45:57;10.68;;;9.60;;
50393;SDS011;36308;46.312;25.288;2023-06-22T10:48:23;11.07;;;9.98;;
50393;SDS011;36308;46.312;25.288;2023-06-22T10:50:48;14.00;;;10.27;;
50393;SDS011;36308;46.312;25.288;2023-06-22T10:53:13;15.88;;;12.43;;
50393;SDS011;36308;46.312;25.288;2023-06-22T10:55:39;12.70;;;11.27;;
50393;SDS011;36308;46.312;25.288;2023-06-22T10:58:04;13.27;;;11.05;;
50393;SDS011;36308;46.312;25.288;2023-06-22T11:00:30;13.23;;;11.18;;
50393;SDS011;36308;46.312;25.288;2023-06-22T11:02:55;13.40;;;10.00;;
50393;SDS011;36308;46.312;25.288;2023-06-22T11:05:21;11.65;;;9.60;;
50393;SDS011;36308;46.312;25.288;2023-06-22T11:07:47;12.23;;;9.35;;
50393;SDS011;36308;46.312;25.288;2023-06-22T11:10:14;12.02;;;9.80;;
50393;SDS011;36308;46.312;25.288;2023-06-22T11:12:40;11.52;;;9.18;;
50393;SDS011;36308;46.312;25.288;2023-06-22T11:15:07;12.98;;;9.18;;
50393;SDS011;36308;46.312;25.288;2023-06-22T11:17:33;11.23;;;9.07;;
50393;SDS011;36308;46.312;25.288;2023-06-22T11:19:58;13.02;;;9.98;;
50393;SDS011;36308;46.312;25.288;2023-06-22T11:22:25;11.65;;;10.45;;
50393;SDS011;36308;46.312;25.288;2023-06-22T11:24:50;11.98;;;10.45;;
50393;SDS011;36308;46.312;25.288;2023-06-22T11:27:17;14.30;;;9.98;;
50393;SDS011;36308;46.312;25.288;2023-06-22T11:29:43;12.35;;;10.77;;
50393;SDS011;36308;46.312;25.288;2023-06-22T11:32:09;11.75;;;8.55;;
50393;SDS011;36308;46.312;25.288;2023-06-22T11:34:34;13.65;;;10.85;;
50393;SDS011;36308;46.312;25.288;2023-06-22T11:37:00;18.55;;;11.82;;
50393;SDS011;36308;46.312;25.288;2023-06-22T11:39:25;22.05;;;11.40;;
50393;SDS011;36308;46.312;25.288;2023-06-22T11:41:51;17.92;;;11.13;;
50393;SDS011;36308;46.312;25.288;2023-06-22T11:44:16;15.02;;;10.77;;
50393;SDS011;36308;46.312;25.288;2023-06-22T11:46:42;14.50;;;11.20;;
50393;SDS011;36308;46.312;25.288;2023-06-22T11:49:10;16.52;;;11.82;;
50393;SDS011;36308;46.312;25.288;2023-06-22T11:51:36;12.80;;;10.23;;
50393;SDS011;36308;46.312;25.288;2023-06-22T11:54:02;10.43;;;9.23;;
50393;SDS011;36308;46.312;25.288;2023-06-22T11:56:28;10.25;;;9.15;;
50393;SDS011;36308;46.312;25.288;2023-06-22T11:58:53;10.93;;;9.00;;
50393;SDS011;36308;46.312;25.288;2023-06-22T12:01:19;9.88;;;8.52;;
50393;SDS011;36308;46.312;25.288;2023-06-22T12:03:45;12.93;;;9.05;;
50393;SDS011;36308;46.312;25.288;2023-06-22T12:06:10;11.27;;;9.13;;
50393;SDS011;36308;46.312;25.288;2023-06-22T12:08:36;9.88;;;8.77;;
50393;SDS011;36308;46.312;25.288;2023-06-22T12:11:02;11.32;;;8.93;;
50393;SDS011;36308;46.312;25.288;2023-06-22T12:13:27;11.00;;;9.32;;
50393;SDS011;36308;46.312;25.288;2023-06-22T12:15:53;9.23;;;8.13;;
50393;SDS011;36308;46.312;25.288;2023-06-22T12:18:19;9.65;;;8.23;;
50393;SDS011;36308;46.312;25.288;2023-06-22T12:20:46;11.07;;;8.00;;
50393;SDS011;36308;46.312;25.288;2023-06-22T12:23:12;8.98;;;7.88;;
50393;SDS011;36308;46.312;25.288;2023-06-22T12:25:38;9.02;;;7.43;;
50393;SDS011;36308;46.312;25.288;2023-06-22T12:28:03;9.63;;;7.97;;
50393;SDS011;36308;46.312;25.288;2023-06-22T12:30:29;9.13;;;8.23;;
50393;SDS011;36308;46.312;25.288;2023-06-22T12:32:55;9.90;;;8.20;;
50393;SDS011;36308;46.312;25.288;2023-06-22T12:35:21;12.15;;;8.40;;
50393;SDS011;36308;46.312;25.288;2023-06-22T12:37:46;9.93;;;8.07;;
50393;SDS011;36308;46.312;25.288;2023-06-22T12:40:12;9.10;;;7.57;;
50393;SDS011;36308;46.312;25.288;2023-06-22T12:42:37;9.05;;;7.85;;
50393;SDS011;36308;46.312;25.288;2023-06-22T12:45:03;11.93;;;7.93;;
50393;SDS011;36308;46.312;25.288;2023-06-22T12:47:29;10.00;;;7.72;;
50393;SDS011;36308;46.312;25.288;2023-06-22T12:49:56;12.27;;;8.13;;
50393;SDS011;36308;46.312;25.288;2023-06-22T12:52:21;8.93;;;7.78;;
50393;SDS011;36308;46.312;25.288;2023-06-22T12:54:47;9.45;;;8.45;;
50393;SDS011;36308;46.312;25.288;2023-06-22T12:57:13;11.45;;;8.27;;
50393;SDS011;36308;46.312;25.288;2023-06-22T12:59:39;10.25;;;8.45;;
50393;SDS011;36308;46.312;25.288;2023-06-22T13:02:05;9.93;;;8.65;;
50393;SDS011;36308;46.312;25.288;2023-06-22T13:04:30;11.45;;;8.05;;
50393;SDS011;36308;46.312;25.288;2023-06-22T13:06:56;9.40;;;7.57;;
50393;SDS011;36308;46.312;25.288;2023-06-22T13:09:21;8.30;;;7.50;;
50393;SDS011;36308;46.312;25.288;2023-06-22T13:11:47;7.78;;;6.78;;
50393;SDS011;36308;46.312;25.288;2023-06-22T13:14:12;9.05;;;7.35;;
50393;SDS011;36308;46.312;25.288;2023-06-22T13:16:38;7.97;;;6.97;;
50393;SDS011;36308;46.312;25.288;2023-06-22T13:19:04;7.82;;;6.18;;
50393;SDS011;36308;46.312;25.288;2023-06-22T13:21:30;12.15;;;10.30;;
50393;SDS011;36308;46.312;25.288;2023-06-22T13:23:55;14.85;;;11.82;;
50393;SDS011;36308;46.312;25.288;2023-06-22T13:26:21;12.40;;;9.55;;
50393;SDS011;36308;46.312;25.288;2023-06-22T13:28:47;10.45;;;7.80;;
50393;SDS011;36308;46.312;25.288;2023-06-22T13:31:13;9.88;;;6.72;;
50393;SDS011;36308;46.312;25.288;2023-06-22T13:33:38;8.18;;;6.35;;
50393;SDS011;36308;46.312;25.288;2023-06-22T13:36:05;6.50;;;5.90;;
50393;SDS011;36308;46.312;25.288;2023-06-22T13:38:32;7.72;;;6.25;;
50393;SDS011;36308;46.312;25.288;2023-06-22T13:40:57;8.80;;;6.40;;
50393;SDS011;36308;46.312;25.288;2023-06-22T13:43:24;8.75;;;6.80;;
50393;SDS011;36308;46.312;25.288;2023-06-22T13:45:51;8.43;;;7.22;;
50393;SDS011;36308;46.312;25.288;2023-06-22T13:48:16;8.35;;;7.35;;
50393;SDS011;36308;46.312;25.288;2023-06-22T13:50:42;9.05;;;7.43;;
50393;SDS011;36308;46.312;25.288;2023-06-22T13:53:08;8.13;;;7.22;;
50393;SDS011;36308;46.312;25.288;2023-06-22T13:55:34;7.93;;;7.13;;
50393;SDS011;36308;46.312;25.288;2023-06-22T13:57:59;9.48;;;7.78;;
50393;SDS011;36308;46.312;25.288;2023-06-22T14:00:24;9.93;;;7.50;;
50393;SDS011;36308;46.312;25.288;2023-06-22T14:02:50;9.50;;;7.13;;
50393;SDS011;36308;46.312;25.288;2023-06-22T14:05:16;8.70;;;7.32;;
50393;SDS011;36308;46.312;25.288;2023-06-22T14:07:42;10.13;;;7.25;;
50393;SDS011;36308;46.312;25.288;2023-06-22T14:10:07;8.98;;;7.10;;
50393;SDS011;36308;46.312;25.288;2023-06-22T14:12:33;10.85;;;7.68;;
50393;SDS011;36308;46.312;25.288;2023-06-22T14:14:59;9.75;;;7.90;;
50393;SDS011;36308;46.312;25.288;2023-06-22T14:17:24;10.25;;;7.90;;
50393;SDS011;36308;46.312;25.288;2023-06-22T14:19:51;9.70;;;8.48;;
50393;SDS011;36308;46.312;25.288;2023-06-22T14:22:20;11.80;;;8.82;;